Terminal Aerodrome Forecast
Issued by NWS Jackson, KY

Home | Current Version | Previous Version | Text Only | Print | Product List | Glossary On
Versions: 1 2 3 4 5 6 7 8 9 10 11 12 13 14 15 16 17
796
FTUS43 KJKL 142332
TAFJKL
TAF
KJKL 142332Z 1500/1524 30004KT 2SM BR VCSH OVC003
     FM150300 32004KT 1SM -DZ BR OVC003
     FM151400 VRB03KT 1SM BR OVC003
     FM151800 00000KT P6SM OVC008
     FM152300 VRB03KT P6SM VCSH OVC015=

USA.gov is the U.S. government's official web portal to all federal, state and local government web resources and services.